sensor_id;sensor_type;location;lat;lon;timestamp;pressure;altitude;pressure_sealevel;temperature;humidity
22389;BME280;11362;48.102;11.620;2023-04-01T00:02:06;94012.84;;;23.82;37.29
22389;BME280;11362;48.102;11.620;2023-04-01T00:04:31;94002.53;;;23.82;37.31
22389;BME280;11362;48.102;11.620;2023-04-01T00:06:56;94005.31;;;23.82;37.31
22389;BME280;11362;48.102;11.620;2023-04-01T00:09:22;94004.53;;;23.82;37.27
22389;BME280;11362;48.102;11.620;2023-04-01T00:11:47;93999.75;;;23.82;37.31
22389;BME280;11362;48.102;11.620;2023-04-01T00:14:12;93999.75;;;23.82;37.31
22389;BME280;11362;48.102;11.620;2023-04-01T00:16:38;93996.22;;;23.82;37.34
22389;BME280;11362;48.102;11.620;2023-04-01T00:19:03;94005.31;;;23.82;37.28
22389;BME280;11362;48.102;11.620;2023-04-01T00:21:28;93989.88;;;23.81;37.35
22389;BME280;11362;48.102;11.620;2023-04-01T00:23:54;93983.59;;;23.81;37.35
22389;BME280;11362;48.102;11.620;2023-04-01T00:26:19;93978.81;;;23.81;37.24
22389;BME280;11362;48.102;11.620;2023-04-01T00:28:45;93985.13;;;23.82;37.32
22389;BME280;11362;48.102;11.620;2023-04-01T00:31:14;93971.72;;;23.80;37.07
22389;BME280;11362;48.102;11.620;2023-04-01T00:33:40;93978.03;;;23.81;37.36
22389;BME280;11362;48.102;11.620;2023-04-01T00:36:13;93975.28;;;23.81;37.20
22389;BME280;11362;48.102;11.620;2023-04-01T00:38:39;93974.47;;;23.80;37.26
22389;BME280;11362;48.102;11.620;2023-04-01T00:41:05;93973.69;;;23.80;37.21
22389;BME280;11362;48.102;11.620;2023-04-01T00:43:31;93968.16;;;23.80;37.24
22389;BME280;11362;48.102;11.620;2023-04-01T00:45:57;93971.72;;;23.80;37.07
22389;BME280;11362;48.102;11.620;2023-04-01T00:48:25;93978.47;;;23.79;37.29
22389;BME280;11362;48.102;11.620;2023-04-01T00:50:55;93972.50;;;23.81;37.29
22389;BME280;11362;48.102;11.620;2023-04-01T00:53:23;93981.56;;;23.81;37.27
22389;BME280;11362;48.102;11.620;2023-04-01T00:56:02;93979.25;;;23.80;37.11
22389;BME280;11362;48.102;11.620;2023-04-01T00:58:31;93980.03;;;23.80;37.34
22389;BME280;11362;48.102;11.620;2023-04-01T01:00:59;93972.94;;;23.79;37.09
22389;BME280;11362;48.102;11.620;2023-04-01T01:03:25;93968.94;;;23.80;37.07
22389;BME280;11362;48.102;11.620;2023-04-01T01:08:41;93968.94;;;23.80;37.10
22389;BME280;11362;48.102;11.620;2023-04-01T01:11:10;93974.47;;;23.80;37.08
22389;BME280;11362;48.102;11.620;2023-04-01T01:13:41;93970.91;;;23.80;37.00
22389;BME280;11362;48.102;11.620;2023-04-01T01:16:27;93974.47;;;23.80;37.11
22389;BME280;11362;48.102;11.620;2023-04-01T01:19:30;93978.47;;;23.79;37.14
22389;BME280;11362;48.102;11.620;2023-04-01T01:21:48;93968.63;;;23.78;36.97
22389;BME280;11362;48.102;11.620;2023-04-01T01:24:27;93976.94;;;23.78;37.03
22389;BME280;11362;48.102;11.620;2023-04-01T01:35:20;93969.38;;;23.79;36.95
22389;BME280;11362;48.102;11.620;2023-04-01T01:37:50;93976.94;;;23.78;36.96
22389;BME280;11362;48.102;11.620;2023-04-01T01:40:18;93973.81;;;23.76;36.89
22389;BME280;11362;48.102;11.620;2023-04-01T01:42:47;93965.84;;;23.78;36.81
22389;BME280;11362;48.102;11.620;2023-04-01T01:45:16;93963.06;;;23.78;36.98
22389;BME280;11362;48.102;11.620;2023-04-01T01:47:44;93962.28;;;23.78;36.81
22389;BME280;11362;48.102;11.620;2023-04-01T01:50:11;93962.72;;;23.76;36.94
22389;BME280;11362;48.102;11.620;2023-04-01T01:52:37;93958.75;;;23.77;36.77
22389;BME280;11362;48.102;11.620;2023-04-01T01:55:02;93957.53;;;23.78;36.90
22389;BME280;11362;48.102;11.620;2023-04-01T01:57:32;93957.53;;;23.78;36.80
22389;BME280;11362;48.102;11.620;2023-04-01T02:00:16;93959.50;;;23.78;36.82
22389;BME280;11362;48.102;11.620;2023-04-01T02:02:44;93955.97;;;23.77;36.78
22389;BME280;11362;48.102;11.620;2023-04-01T02:05:11;93954.75;;;23.78;36.65
22389;BME280;11362;48.102;11.620;2023-04-01T02:07:40;93974.16;;;23.78;36.82
22389;BME280;11362;48.102;11.620;2023-04-01T02:10:08;93965.06;;;23.78;36.75
22389;BME280;11362;48.102;11.620;2023-04-01T02:12:35;93971.38;;;23.78;36.82
22389;BME280;11362;48.102;11.620;2023-04-01T02:15:09;93976.94;;;23.78;36.69
22389;BME280;11362;48.102;11.620;2023-04-01T02:17:40;93978.91;;;23.78;36.84
22389;BME280;11362;48.102;11.620;2023-04-01T02:20:19;93983.72;;;23.77;36.93
22389;BME280;11362;48.102;11.620;2023-04-01T02:22:54;93982.91;;;23.77;36.60
22389;BME280;11362;48.102;11.620;2023-04-01T02:25:24;93976.59;;;23.76;36.73
22389;BME280;11362;48.102;11.620;2023-04-01T02:27:51;93980.16;;;23.77;36.75
22389;BME280;11362;48.102;11.620;2023-04-01T02:30:18;93983.72;;;23.77;36.59
22389;BME280;11362;48.102;11.620;2023-04-01T02:32:44;93972.63;;;23.77;36.83
22389;BME280;11362;48.102;11.620;2023-04-01T02:35:14;93978.16;;;23.77;36.68
22389;BME280;11362;48.102;11.620;2023-04-01T02:37:40;93978.91;;;23.78;36.64
22389;BME280;11362;48.102;11.620;2023-04-01T02:40:06;93973.81;;;23.76;36.54
22389;BME280;11362;48.102;11.620;2023-04-01T02:42:32;93980.94;;;23.77;36.53
22389;BME280;11362;48.102;11.620;2023-04-01T02:44:57;93977.38;;;23.77;36.59
22389;BME280;11362;48.102;11.620;2023-04-01T02:47:23;93977.38;;;23.77;36.88
22389;BME280;11362;48.102;11.620;2023-04-01T02:49:48;93979.34;;;23.76;36.64
22389;BME280;11362;48.102;11.620;2023-04-01T02:52:13;93983.72;;;23.77;36.55
22389;BME280;11362;48.102;11.620;2023-04-01T02:54:38;93979.34;;;23.76;36.45
22389;BME280;11362;48.102;11.620;2023-04-01T02:57:04;93980.16;;;23.77;36.50
22389;BME280;11362;48.102;11.620;2023-04-01T02:59:29;93986.47;;;23.77;36.57
22389;BME280;11362;48.102;11.620;2023-04-01T03:01:55;93985.69;;;23.77;36.55
22389;BME280;11362;48.102;11.620;2023-04-01T03:04:21;93975.41;;;23.77;36.48
22389;BME280;11362;48.102;11.620;2023-04-01T03:06:46;93991.69;;;23.75;36.36
22389;BME280;11362;48.102;11.620;2023-04-01T03:09:11;93982.13;;;23.76;36.28
22389;BME280;11362;48.102;11.620;2023-04-01T03:11:36;93984.91;;;23.76;36.36
22389;BME280;11362;48.102;11.620;2023-04-01T03:14:02;93983.72;;;23.77;36.17
22389;BME280;11362;48.102;11.620;2023-04-01T03:16:27;93988.16;;;23.75;36.46
22389;BME280;11362;48.102;11.620;2023-04-01T03:18:52;93998.78;;;23.76;36.41
22389;BME280;11362;48.102;11.620;2023-04-01T03:21:22;93997.56;;;23.77;36.40
22389;BME280;11362;48.102;11.620;2023-04-01T03:23:48;93987.69;;;23.76;36.29
22389;BME280;11362;48.102;11.620;2023-04-01T03:26:14;93994.44;;;23.75;36.41
22389;BME280;11362;48.102;11.620;2023-04-01T03:28:39;93995.25;;;23.76;36.32
22389;BME280;11362;48.102;11.620;2023-04-01T03:31:05;93991.25;;;23.77;36.37
22389;BME280;11362;48.102;11.620;2023-04-01T03:33:31;93996.78;;;23.77;36.28
22389;BME280;11362;48.102;11.620;2023-04-01T03:35:56;93996.00;;;23.76;36.27
22389;BME280;11362;48.102;11.620;2023-04-01T03:38:22;93987.69;;;23.76;36.25
22389;BME280;11362;48.102;11.620;2023-04-01T03:40:47;93994.44;;;23.75;36.28
22389;BME280;11362;48.102;11.620;2023-04-01T03:43:12;93998.78;;;23.76;36.27
22389;BME280;11362;48.102;11.620;2023-04-01T03:45:46;94000.78;;;23.76;36.18
22389;BME280;11362;48.102;11.620;2023-04-01T03:48:13;94002.31;;;23.77;36.27
22389;BME280;11362;48.102;11.620;2023-04-01T03:50:39;94013.41;;;23.77;36.22
22389;BME280;11362;48.102;11.620;2023-04-01T03:53:04;94018.97;;;23.77;36.17
22389;BME280;11362;48.102;11.620;2023-04-01T03:55:29;94028.06;;;23.77;36.18
22389;BME280;11362;48.102;11.620;2023-04-01T03:57:54;94020.50;;;23.78;36.12
22389;BME280;11362;48.102;11.620;2023-04-01T04:00:20;94019.75;;;23.77;36.01
22389;BME280;11362;48.102;11.620;2023-04-01T04:02:45;94019.75;;;23.77;36.11
22389;BME280;11362;48.102;11.620;2023-04-01T04:05:10;94034.38;;;23.78;36.09
22389;BME280;11362;48.102;11.620;2023-04-01T04:07:36;94018.53;;;23.78;36.06
22389;BME280;11362;48.102;11.620;2023-04-01T04:10:01;94020.50;;;23.78;36.14
22389;BME280;11362;48.102;11.620;2023-04-01T04:12:27;94025.31;;;23.77;36.13
22389;BME280;11362;48.102;11.620;2023-04-01T04:14:52;94022.84;;;23.79;36.17
22389;BME280;11362;48.102;11.620;2023-04-01T04:17:17;94025.63;;;23.79;35.72
22389;BME280;11362;48.102;11.620;2023-04-01T04:19:42;94016.19;;;23.77;35.99
22389;BME280;11362;48.102;11.620;2023-04-01T04:22:08;94016.50;;;23.79;36.08
22389;BME280;11362;48.102;11.620;2023-04-01T04:24:36;94025.31;;;23.77;35.98
22389;BME280;11362;48.102;11.620;2023-04-01T04:27:03;94018.53;;;23.78;36.04
22389;BME280;11362;48.102;11.620;2023-04-01T04:29:28;94018.53;;;23.78;36.11
22389;BME280;11362;48.102;11.620;2023-04-01T04:31:54;94017.75;;;23.78;35.95
22389;BME280;11362;48.102;11.620;2023-04-01T04:34:19;94024.06;;;23.78;35.96
22389;BME280;11362;48.102;11.620;2023-04-01T04:36:44;94022.84;;;23.79;35.99
22389;BME280;11362;48.102;11.620;2023-04-01T04:39:10;94026.84;;;23.78;36.12
22389;BME280;11362;48.102;11.620;2023-04-01T04:41:37;94032.38;;;23.78;35.90
22389;BME280;11362;48.102;11.620;2023-04-01T04:44:03;94042.69;;;23.78;35.96
22389;BME280;11362;48.102;11.620;2023-04-01T04:46:28;94043.47;;;23.78;35.95
22389;BME280;11362;48.102;11.620;2023-04-01T04:48:54;94045.47;;;23.78;35.99
22389;BME280;11362;48.102;11.620;2023-04-01T04:51:20;94035.16;;;23.78;35.91
22389;BME280;11362;48.102;11.620;2023-04-01T04:53:45;94038.69;;;23.79;35.87
22389;BME280;11362;48.102;11.620;2023-04-01T04:56:11;94041.94;;;23.77;35.92
22389;BME280;11362;48.102;11.620;2023-04-01T04:58:37;94049.03;;;23.78;35.91
22389;BME280;11362;48.102;11.620;2023-04-01T05:01:11;94046.69;;;23.77;35.89
22389;BME280;11362;48.102;11.620;2023-04-01T05:03:37;94043.47;;;23.78;35.92
22389;BME280;11362;48.102;11.620;2023-04-01T05:06:04;94042.69;;;23.78;35.90
22389;BME280;11362;48.102;11.620;2023-04-01T05:08:30;94041.94;;;23.77;35.97
22389;BME280;11362;48.102;11.620;2023-04-01T05:10:55;94037.16;;;23.78;35.54
22389;BME280;11362;48.102;11.620;2023-04-01T05:13:21;94036.38;;;23.77;35.71
22389;BME280;11362;48.102;11.620;2023-04-01T05:15:46;94041.94;;;23.77;35.78
22389;BME280;11362;48.102;11.620;2023-04-01T05:18:12;94042.25;;;23.79;35.80
22389;BME280;11362;48.102;11.620;2023-04-01T05:20:37;94041.47;;;23.79;35.87
22389;BME280;11362;48.102;11.620;2023-04-01T05:23:02;94045.78;;;23.80;35.80
22389;BME280;11362;48.102;11.620;2023-04-01T05:25:27;94039.47;;;23.79;35.80
22389;BME280;11362;48.102;11.620;2023-04-01T05:27:53;94033.16;;;23.79;35.72
22389;BME280;11362;48.102;11.620;2023-04-01T05:30:18;94036.28;;;23.81;35.76
22389;BME280;11362;48.102;11.620;2023-04-01T05:32:44;94037.03;;;23.81;35.96
22389;BME280;11362;48.102;11.620;2023-04-01T05:35:09;94037.34;;;23.83;36.03
22389;BME280;11362;48.102;11.620;2023-04-01T05:37:34;94036.16;;;23.84;35.96
22389;BME280;11362;48.102;11.620;2023-04-01T05:40:00;94037.69;;;23.85;36.09
22389;BME280;11362;48.102;11.620;2023-04-01T05:42:25;94036.91;;;23.85;36.13
22389;BME280;11362;48.102;11.620;2023-04-01T05:44:51;94038.94;;;23.84;36.04
22389;BME280;11362;48.102;11.620;2023-04-01T05:47:16;94038.47;;;23.86;36.24
22389;BME280;11362;48.102;11.620;2023-04-01T05:49:41;94039.28;;;23.86;36.36
22389;BME280;11362;48.102;11.620;2023-04-01T05:52:07;94040.81;;;23.87;36.29
22389;BME280;11362;48.102;11.620;2023-04-01T05:54:33;94042.03;;;23.86;36.32
22389;BME280;11362;48.102;11.620;2023-04-01T05:56:58;94040.38;;;23.89;36.48
22389;BME280;11362;48.102;11.620;2023-04-01T05:59:23;94040.38;;;23.89;36.47
22389;BME280;11362;48.102;11.620;2023-04-01T06:01:49;94041.94;;;23.90;36.54
22389;BME280;11362;48.102;11.620;2023-04-01T06:04:16;94039.91;;;23.90;36.39
22389;BME280;11362;48.102;11.620;2023-04-01T06:06:41;94038.38;;;23.89;36.60
22389;BME280;11362;48.102;11.620;2023-04-01T06:11:51;94035.91;;;23.91;36.64
22389;BME280;11362;48.102;11.620;2023-04-01T06:18:08;94035.47;;;23.93;36.80
22389;BME280;11362;48.102;11.620;2023-04-01T06:20:24;94026.28;;;23.96;36.83
22389;BME280;11362;48.102;11.620;2023-04-01T06:23:46;94048.47;;;23.96;36.90
22389;BME280;11362;48.102;11.620;2023-04-01T06:32:00;94052.31;;;23.98;36.75
22389;BME280;11362;48.102;11.620;2023-04-01T06:34:42;94041.56;;;24.00;36.95
22389;BME280;11362;48.102;11.620;2023-04-01T06:37:23;94047.88;;;24.01;37.12
22389;BME280;11362;48.102;11.620;2023-04-01T06:40:12;94045.44;;;24.03;37.15
22389;BME280;11362;48.102;11.620;2023-04-01T06:43:01;94064.38;;;24.04;37.50
22389;BME280;11362;48.102;11.620;2023-04-01T06:45:36;94059.94;;;24.07;37.64
22389;BME280;11362;48.102;11.620;2023-04-01T06:48:30;94046.50;;;24.05;37.59
22389;BME280;11362;48.102;11.620;2023-04-01T06:54:05;94049.50;;;24.11;37.93
22389;BME280;11362;48.102;11.620;2023-04-01T06:56:36;94046.75;;;24.11;37.89
22389;BME280;11362;48.102;11.620;2023-04-01T06:59:05;94055.06;;;24.11;37.99
22389;BME280;11362;48.102;11.620;2023-04-01T07:01:38;94055.81;;;24.11;38.07
22389;BME280;11362;48.102;11.620;2023-04-01T07:04:15;94058.94;;;24.13;38.13
22389;BME280;11362;48.102;11.620;2023-04-01T07:06:48;94053.03;;;24.11;38.21
22389;BME280;11362;48.102;11.620;2023-04-01T07:09:22;94055.81;;;24.11;38.23
22389;BME280;11362;48.102;11.620;2023-04-01T07:11:50;94064.59;;;24.10;38.26
22389;BME280;11362;48.102;11.620;2023-04-01T07:14:30;94062.59;;;24.10;38.24
22389;BME280;11362;48.102;11.620;2023-04-01T07:22:34;94057.38;;;24.12;38.37
22389;BME280;11362;48.102;11.620;2023-04-01T07:25:21;94058.16;;;24.13;38.39
22389;BME280;11362;48.102;11.620;2023-04-01T07:27:47;94052.91;;;24.15;38.54
22389;BME280;11362;48.102;11.620;2023-04-01T07:30:21;94061.13;;;24.18;38.60
22389;BME280;11362;48.102;11.620;2023-04-01T07:32:52;94054.03;;;24.17;38.48
22389;BME280;11362;48.102;11.620;2023-04-01T07:41:13;94048.91;;;24.16;38.58
22389;BME280;11362;48.102;11.620;2023-04-01T07:43:54;94046.00;;;24.19;38.46
22389;BME280;11362;48.102;11.620;2023-04-01T07:46:57;94053.47;;;24.22;38.48
22389;BME280;11362;48.102;11.620;2023-04-01T07:49:44;94047.59;;;24.20;38.50
22389;BME280;11362;48.102;11.620;2023-04-01T07:52:44;94055.56;;;24.18;38.39
22389;BME280;11362;48.102;11.620;2023-04-01T08:00:57;94066.53;;;24.22;38.60
22389;BME280;11362;48.102;11.620;2023-04-01T08:03:36;94050.69;;;24.22;38.43
22389;BME280;11362;48.102;11.620;2023-04-01T08:06:22;94059.88;;;24.19;38.47
22389;BME280;11362;48.102;11.620;2023-04-01T08:09:00;94069.00;;;24.20;38.46
22389;BME280;11362;48.102;11.620;2023-04-01T08:14:19;94071.34;;;24.21;38.71
22389;BME280;11362;48.102;11.620;2023-04-01T08:17:06;94068.88;;;24.23;38.74
22389;BME280;11362;48.102;11.620;2023-04-01T08:19:52;94072.88;;;24.22;38.88
22389;BME280;11362;48.102;11.620;2023-04-01T08:22:30;94077.19;;;24.23;38.58
22389;BME280;11362;48.102;11.620;2023-04-01T08:25:01;94068.09;;;24.23;38.57
22389;BME280;11362;48.102;11.620;2023-04-01T08:27:51;94060.56;;;24.23;38.59
22389;BME280;11362;48.102;11.620;2023-04-01T08:30:24;94065.78;;;24.21;38.33
22389;BME280;11362;48.102;11.620;2023-04-01T08:32:58;94044.34;;;24.22;38.15
22389;BME280;11362;48.102;11.620;2023-04-01T08:35:34;94036.50;;;24.20;38.16
22389;BME280;11362;48.102;11.620;2023-04-01T08:38:18;94036.81;;;24.22;37.95
22389;BME280;11362;48.102;11.620;2023-04-01T08:40:56;94043.59;;;24.21;38.02
22389;BME280;11362;48.102;11.620;2023-04-01T08:43:30;94072.16;;;24.09;34.21
22389;BME280;11362;48.102;11.620;2023-04-01T08:46:13;94073.31;;;23.74;32.95
22389;BME280;11362;48.102;11.620;2023-04-01T08:48:59;94036.75;;;23.54;33.03
22389;BME280;11362;48.102;11.620;2023-04-01T08:54:33;94060.75;;;23.82;34.40
22389;BME280;11362;48.102;11.620;2023-04-01T09:02:46;94051.34;;;23.92;34.84
22389;BME280;11362;48.102;11.620;2023-04-01T09:13:41;94028.56;;;23.97;34.57
22389;BME280;11362;48.102;11.620;2023-04-01T09:27:03;94033.75;;;24.08;34.82
22389;BME280;11362;48.102;11.620;2023-04-01T09:32:47;94030.78;;;24.02;34.85
22389;BME280;11362;48.102;11.620;2023-04-01T09:35:22;94023.69;;;24.01;34.96
22389;BME280;11362;48.102;11.620;2023-04-01T09:46:11;93995.94;;;24.01;34.98
22389;BME280;11362;48.102;11.620;2023-04-01T09:51:34;94011.38;;;24.02;34.91
22389;BME280;11362;48.102;11.620;2023-04-01T09:54:10;94005.81;;;24.02;35.08
22389;BME280;11362;48.102;11.620;2023-04-01T10:02:38;94000.16;;;24.06;34.83
22389;BME280;11362;48.102;11.620;2023-04-01T10:05:17;93991.81;;;24.06;34.98
22389;BME280;11362;48.102;11.620;2023-04-01T10:16:26;94008.59;;;24.02;34.98
22389;BME280;11362;48.102;11.620;2023-04-01T10:24:57;93994.41;;;24.00;34.91
22389;BME280;11362;48.102;11.620;2023-04-01T10:33:19;93998.28;;;24.03;34.99
22389;BME280;11362;48.102;11.620;2023-04-01T10:41:40;93995.94;;;24.01;35.08
22389;BME280;11362;48.102;11.620;2023-04-01T10:44:28;94001.50;;;24.01;35.15
22389;BME280;11362;48.102;11.620;2023-04-01T10:47:13;93989.63;;;24.01;35.04
22389;BME280;11362;48.102;11.620;2023-04-01T11:01:22;94002.72;;;24.00;35.00
22389;BME280;11362;48.102;11.620;2023-04-01T11:15:07;94012.72;;;23.98;35.01
22389;BME280;11362;48.102;11.620;2023-04-01T11:26:04;94029.22;;;24.01;34.98
22389;BME280;11362;48.102;11.620;2023-04-01T11:31:45;94030.78;;;24.02;34.97
22389;BME280;11362;48.102;11.620;2023-04-01T11:40:16;94023.69;;;24.01;34.99
22389;BME280;11362;48.102;11.620;2023-04-01T11:45:50;94045.09;;;24.01;34.92
22389;BME280;11362;48.102;11.620;2023-04-01T11:54:35;94064.31;;;23.95;34.97
22389;BME280;11362;48.102;11.620;2023-04-01T11:57:26;94084.94;;;23.94;35.01
22389;BME280;11362;48.102;11.620;2023-04-01T12:03:18;94101.47;;;23.98;34.93
22389;BME280;11362;48.102;11.620;2023-04-01T12:05:58;94092.03;;;23.95;35.02
22389;BME280;11362;48.102;11.620;2023-04-01T12:11:35;94083.72;;;23.95;35.05
22389;BME280;11362;48.102;11.620;2023-04-01T12:20:09;94077.38;;;23.95;35.04
22389;BME280;11362;48.102;11.620;2023-04-01T12:22:49;94080.16;;;23.95;35.08
22389;BME280;11362;48.102;11.620;2023-04-01T12:31:09;94051.66;;;23.94;34.86
22389;BME280;11362;48.102;11.620;2023-04-01T12:39:22;94073.53;;;23.92;35.00
22389;BME280;11362;48.102;11.620;2023-04-01T12:44:55;94076.31;;;23.92;35.10
22389;BME280;11362;48.102;11.620;2023-04-01T12:53:13;94078.28;;;23.92;35.07
22389;BME280;11362;48.102;11.620;2023-04-01T12:55:43;94077.50;;;23.91;35.01
22389;BME280;11362;48.102;11.620;2023-04-01T12:58:33;94040.69;;;23.91;35.05
22389;BME280;11362;48.102;11.620;2023-04-01T13:09:16;94058.22;;;23.88;35.01
22389;BME280;11362;48.102;11.620;2023-04-01T13:17:37;94088.72;;;23.88;35.06
22389;BME280;11362;48.102;11.620;2023-04-01T13:25:39;94078.09;;;23.86;35.03
22389;BME280;11362;48.102;11.620;2023-04-01T13:28:25;94082.84;;;23.86;35.11
22389;BME280;11362;48.102;11.620;2023-04-01T13:34:15;94091.97;;;23.86;34.96
22389;BME280;11362;48.102;11.620;2023-04-01T13:42:37;94095.94;;;23.85;34.86
22389;BME280;11362;48.102;11.620;2023-04-01T13:45:17;94098.69;;;23.85;35.02
22389;BME280;11362;48.102;11.620;2023-04-01T13:53:59;94102.25;;;23.86;34.93
22389;BME280;11362;48.102;11.620;2023-04-01T13:59:01;94094.25;;;23.88;34.93
22389;BME280;11362;48.102;11.620;2023-04-01T14:01:35;94089.50;;;23.88;34.97
22389;BME280;11362;48.102;11.620;2023-04-01T14:04:30;94099.06;;;23.87;34.97
22389;BME280;11362;48.102;11.620;2023-04-01T14:07:16;94099.06;;;23.87;35.04
22389;BME280;11362;48.102;11.620;2023-04-01T14:10:05;94095.50;;;23.87;34.97
22389;BME280;11362;48.102;11.620;2023-04-01T14:12:44;94095.50;;;23.87;35.14
22389;BME280;11362;48.102;11.620;2023-04-01T14:23:54;94092.28;;;23.88;34.90
22389;BME280;11362;48.102;11.620;2023-04-01T14:26:44;94096.59;;;23.89;35.24
22389;BME280;11362;48.102;11.620;2023-04-01T14:29:24;94090.63;;;23.91;35.24
22389;BME280;11362;48.102;11.620;2023-04-01T14:32:02;94099.69;;;23.91;35.43
22389;BME280;11362;48.102;11.620;2023-04-01T14:34:58;94108.00;;;23.91;35.52
22389;BME280;11362;48.102;11.620;2023-04-01T14:43:19;94107.66;;;24.02;35.93
22389;BME280;11362;48.102;11.620;2023-04-01T14:46:04;94095.81;;;24.01;35.93
22389;BME280;11362;48.102;11.620;2023-04-01T14:51:03;94104.44;;;24.03;36.42
22389;BME280;11362;48.102;11.620;2023-04-01T14:53:36;94098.97;;;24.12;36.39
22389;BME280;11362;48.102;11.620;2023-04-01T14:56:02;94101.75;;;24.12;36.57
22389;BME280;11362;48.102;11.620;2023-04-01T14:58:50;94098.53;;;24.14;36.95
22389;BME280;11362;48.102;11.620;2023-04-01T15:09:31;94094.22;;;24.47;37.51
22389;BME280;11362;48.102;11.620;2023-04-01T15:14:53;94097.25;;;24.61;37.71
22389;BME280;11362;48.102;11.620;2023-04-01T15:17:45;94104.19;;;24.57;37.84
22389;BME280;11362;48.102;11.620;2023-04-01T15:20:44;94107.63;;;24.48;38.01
22389;BME280;11362;48.102;11.620;2023-04-01T15:23:22;94109.09;;;24.40;38.28
22389;BME280;11362;48.102;11.620;2023-04-01T15:28:59;94108.47;;;24.36;38.67
22389;BME280;11362;48.102;11.620;2023-04-01T15:31:34;94099.22;;;24.39;38.73
22389;BME280;11362;48.102;11.620;2023-04-01T15:37:02;94122.09;;;24.43;38.69
22389;BME280;11362;48.102;11.620;2023-04-01T15:39:42;94109.19;;;24.49;38.63
22389;BME280;11362;48.102;11.620;2023-04-01T15:42:28;94120.53;;;24.42;38.80
22389;BME280;11362;48.102;11.620;2023-04-01T15:47:58;94131.78;;;24.39;38.86
22389;BME280;11362;48.102;11.620;2023-04-01T15:56:26;94135.88;;;24.34;39.00
22389;BME280;11362;48.102;11.620;2023-04-01T15:59:27;94118.91;;;24.32;39.12
22389;BME280;11362;48.102;11.620;2023-04-01T16:01:58;94124.75;;;24.34;39.60
22389;BME280;11362;48.102;11.620;2023-04-01T16:04:41;94121.69;;;24.32;39.27
22389;BME280;11362;48.102;11.620;2023-04-01T16:10:21;94126.25;;;24.26;38.72
22389;BME280;11362;48.102;11.620;2023-04-01T16:15:41;94121.59;;;24.23;38.80
22389;BME280;11362;48.102;11.620;2023-04-01T16:21:05;94134.69;;;24.23;38.91
22389;BME280;11362;48.102;11.620;2023-04-01T16:23:40;94125.59;;;24.22;38.80
22389;BME280;11362;48.102;11.620;2023-04-01T16:26:29;94129.25;;;24.19;38.85
22389;BME280;11362;48.102;11.620;2023-04-01T16:29:17;94120.16;;;24.19;38.79
22389;BME280;11362;48.102;11.620;2023-04-01T16:31:50;94117.06;;;24.17;38.68
22389;BME280;11362;48.102;11.620;2023-04-01T16:34:24;94127.38;;;24.16;38.68
22389;BME280;11362;48.102;11.620;2023-04-01T16:36:59;94122.28;;;24.15;38.53
22389;BME280;11362;48.102;11.620;2023-04-01T16:39:35;94118.75;;;24.14;38.55
22389;BME280;11362;48.102;11.620;2023-04-01T16:42:16;94126.28;;;24.14;38.42
22389;BME280;11362;48.102;11.620;2023-04-01T16:47:47;94123.94;;;24.12;38.33
22389;BME280;11362;48.102;11.620;2023-04-01T16:52:53;94127.19;;;24.11;38.12
22389;BME280;11362;48.102;11.620;2023-04-01T16:55:21;94133.19;;;24.09;37.95
22389;BME280;11362;48.102;11.620;2023-04-01T16:57:52;94144.28;;;24.09;38.28
22389;BME280;11362;48.102;11.620;2023-04-01T17:00:26;94170.91;;;24.07;37.99
22389;BME280;11362;48.102;11.620;2023-04-01T17:03:08;94155.94;;;23.92;35.57
22389;BME280;11362;48.102;11.620;2023-04-01T17:05:48;94143.75;;;23.89;36.61
22389;BME280;11362;48.102;11.620;2023-04-01T17:08:45;94161.06;;;23.93;36.69
22389;BME280;11362;48.102;11.620;2023-04-01T17:11:28;94151.50;;;23.94;36.88
22389;BME280;11362;48.102;11.620;2023-04-01T17:16:43;94180.00;;;23.95;36.88
22389;BME280;11362;48.102;11.620;2023-04-01T17:22:12;94133.31;;;23.93;36.70
22389;BME280;11362;48.102;11.620;2023-04-01T17:25:31;94142.41;;;23.94;36.82
22389;BME280;11362;48.102;11.620;2023-04-01T17:28:14;94183.88;;;23.97;36.87
22389;BME280;11362;48.102;11.620;2023-04-01T17:30:58;94167.94;;;24.01;36.93
22389;BME280;11362;48.102;11.620;2023-04-01T17:42:14;94177.13;;;24.11;37.24
22389;BME280;11362;48.102;11.620;2023-04-01T17:44:49;94186.66;;;24.10;37.34
22389;BME280;11362;48.102;11.620;2023-04-01T17:47:25;94180.34;;;24.09;37.52
22389;BME280;11362;48.102;11.620;2023-04-01T17:52:59;94185.34;;;24.14;37.79
22389;BME280;11362;48.102;11.620;2023-04-01T17:58:35;94181.75;;;24.14;37.90
22389;BME280;11362;48.102;11.620;2023-04-01T18:01:19;94178.22;;;24.13;37.88
22389;BME280;11362;48.102;11.620;2023-04-01T18:06:19;94187.63;;;24.16;37.94
22389;BME280;11362;48.102;11.620;2023-04-01T18:09:29;94188.44;;;24.16;38.18
22389;BME280;11362;48.102;11.620;2023-04-01T18:25:02;94213.28;;;24.20;38.49
22389;BME280;11362;48.102;11.620;2023-04-01T18:27:43;94218.50;;;24.18;38.24
22389;BME280;11362;48.102;11.620;2023-04-01T18:30:17;94218.94;;;24.16;38.01
22389;BME280;11362;48.102;11.620;2023-04-01T18:33:00;94222.94;;;24.15;38.02
22389;BME280;11362;48.102;11.620;2023-04-01T18:35:54;94223.38;;;24.14;38.00
22389;BME280;11362;48.102;11.620;2023-04-01T18:38:31;94229.38;;;24.12;37.82
22389;BME280;11362;48.102;11.620;2023-04-01T18:46:25;94207.19;;;24.12;37.73
22389;BME280;11362;48.102;11.620;2023-04-01T18:49:13;94212.41;;;24.10;37.75
22389;BME280;11362;48.102;11.620;2023-04-01T18:51:54;94270.66;;;24.10;37.63
22389;BME280;11362;48.102;11.620;2023-04-01T18:54:29;94235.81;;;24.09;37.63
22389;BME280;11362;48.102;11.620;2023-04-01T18:57:14;94244.56;;;24.08;37.67
22389;BME280;11362;48.102;11.620;2023-04-01T18:59:42;94244.16;;;24.09;37.54